Impacts TAF Board INFO
FOR SITUATIONAL AWARENESS. NOT TO BE USED FOR FLIGHT PLANNING PURPOSES.
IDs:

KORD - Chicago/O'Hare Intl, IL, US

Issued at 1725 UTC 24 Jun 2018
Updated at 1808 UTC 24 Jun 2018
Potential Impact None Slight Moderate High
Time<<25/19Z 25/20Z 25/21Z 25/22Z 25/23Z 26/00Z 26/01Z 26/02Z 26/03Z 26/04Z 26/05Z 26/06Z 26/07Z
Type PRVL PRVL PRVL PRVL PRVL
VIS >6 >6 >6 >6 >6
CIG -- -- -- -- --
Cover SCT SCT SCT SCT SCT
FltCat VFR VFR VFR VFR VFR
WX -- -- -- -- --
WDir 80 80 80 80 80
WSpd 13 13 13 13 13
WGst -- -- -- -- --

Raw TAF
KORD 241725Z 2418/2524 05012KT P6SM FEW050 SCT250
  FM250100 06009KT P6SM FEW150 SCT250
  FM251600 08013KT P6SM SCT250


METAR Board
Radar Display
Forecast Discussion

FOR SITUATIONAL AWARENESS. NOT TO BE USED FOR FLIGHT PLANNING PURPOSES.